Time;durP1;ratioP1;P1;durP2;ratioP2;P2;SDS_P1;SDS_P2;PMS_P1;PMS_P2;Temp;Humidity;BMP_temperature;BMP_pressure;BME280_temperature;BME280_humidity;BME280_pressure;Samples;Min_cycle;Max_cycle;Signal;HPM_P1;HPM_P2
2022/02/05 00:01:50;;;;;;;0.20;0.10;;;;;;;;;;4377697;32;20031;-92
2022/02/05 00:04:18;;;;;;;0.98;0.20;;;;;;;;;;4375011;32;20043;-89
2022/02/05 00:06:52;;;;;;;0.20;0.10;;;;;;;;;;4379562;32;20031;-89
2022/02/05 00:15:06;;;;;;;0.98;0.15;;;;;;;;;;4378862;32;20039;-92
2022/02/05 00:33:04;;;;;;;1.20;0.37;;;;;;;;;;4379153;32;20480;-92
2022/02/05 00:40:09;;;;;;;2.78;0.30;;;;;;;;;;4371995;32;20054;-92
2022/02/05 00:42:42;;;;;;;1.55;0.30;;;;;;;;;;4350506;32;20090;-91
2022/02/05 00:45:11;;;;;;;1.50;0.20;;;;;;;;;;4362567;32;20102;-91
2022/02/05 00:47:45;;;;;;;0.82;0.13;;;;;;;;;;4363869;32;20027;-89
2022/02/05 00:50:20;;;;;;;1.65;0.30;;;;;;;;;;4375918;32;20046;-90
2022/02/05 00:53:00;;;;;;;2.08;0.20;;;;;;;;;;4376192;32;20179;-90
2022/02/05 00:55:34;;;;;;;1.27;0.30;;;;;;;;;;4364103;32;20036;-90
2022/02/05 00:58:05;;;;;;;0.22;0.17;;;;;;;;;;4351378;32;20035;-90
2022/02/05 01:00:35;;;;;;;1.12;0.30;;;;;;;;;;4366102;32;20089;-90
2022/02/05 01:03:05;;;;;;;0.30;0.20;;;;;;;;;;4367666;32;20052;-90
2022/02/05 01:05:37;;;;;;;0.60;0.13;;;;;;;;;;4378531;32;20055;-91
2022/02/05 01:08:06;;;;;;;1.42;0.13;;;;;;;;;;4365428;32;20427;-91
2022/02/05 01:10:35;;;;;;;0.15;0.13;;;;;;;;;;4353054;32;20407;-90
2022/02/05 01:13:08;;;;;;;0.98;0.20;;;;;;;;;;4353319;32;20051;-91
2022/02/05 01:15:46;;;;;;;0.10;0.10;;;;;;;;;;4366039;32;20047;-90
2022/02/05 01:18:17;;;;;;;0.80;0.20;;;;;;;;;;4379398;32;20048;-90
2022/02/05 01:24:00;;;;;;;1.20;0.22;;;;;;;;;;4328741;33;20049;-90
2022/02/05 01:26:34;;;;;;;0.50;0.20;;;;;;;;;;4318121;33;20177;-90
2022/02/05 01:29:25;;;;;;;0.57;0.20;;;;;;;;;;4326317;33;20435;-90
2022/02/05 01:31:59;;;;;;;1.50;0.20;;;;;;;;;;4350721;33;20134;-90
2022/02/05 01:34:38;;;;;;;1.45;0.32;;;;;;;;;;4351005;33;20044;-90
2022/02/05 01:51:38;;;;;;;0.82;0.30;;;;;;;;;;4351406;33;20446;-90
2022/02/05 01:56:36;;;;;;;1.58;0.30;;;;;;;;;;4365491;32;20126;-91
2022/02/05 02:09:30;;;;;;;1.30;0.20;;;;;;;;;;4378658;32;20070;-90
2022/02/05 02:10:20;;;;;;;0.57;0.20;;;;;;;;;;4378958;32;20035;-91
2022/02/05 02:14:01;;;;;;;0.55;0.30;;;;;;;;;;4378042;32;20055;-91
2022/02/05 02:15:54;;;;;;;1.27;0.17;;;;;;;;;;4361561;32;20460;-90
2022/02/05 02:31:31;;;;;;;1.35;0.25;;;;;;;;;;4354097;32;20039;-90
2022/02/05 02:34:03;;;;;;;1.00;0.30;;;;;;;;;;4375244;32;20035;-90
2022/02/05 02:36:53;;;;;;;0.30;0.30;;;;;;;;;;4366745;32;20399;-90
2022/02/05 02:39:41;;;;;;;0.65;0.20;;;;;;;;;;4366131;32;20081;-91
2022/02/05 02:42:12;;;;;;;1.37;0.20;;;;;;;;;;4342048;32;20117;-91
2022/02/05 02:44:40;;;;;;;1.30;0.30;;;;;;;;;;4365921;32;20078;-91
2022/02/05 02:47:10;;;;;;;0.20;0.10;;;;;;;;;;4354185;32;20244;-91
2022/02/05 02:50:09;;;;;;;0.20;0.10;;;;;;;;;;4352363;32;20087;-90
2022/02/05 02:56:30;;;;;;;2.15;0.30;;;;;;;;;;4377814;32;20122;-90
2022/02/05 02:58:29;;;;;;;1.27;0.20;;;;;;;;;;4377268;32;20047;-91
2022/02/05 03:00:59;;;;;;;2.53;0.27;;;;;;;;;;4366389;32;20047;-90
2022/02/05 03:03:29;;;;;;;0.52;0.30;;;;;;;;;;4378119;32;20148;-90
2022/02/05 03:05:57;;;;;;;0.70;0.37;;;;;;;;;;4377110;32;20473;-90
2022/02/05 03:08:26;;;;;;;1.58;0.30;;;;;;;;;;4364219;32;20518;-90
2022/02/05 03:10:55;;;;;;;2.15;0.43;;;;;;;;;;4365700;32;20472;-90
2022/02/05 03:13:27;;;;;;;1.65;0.30;;;;;;;;;;4378467;32;20036;-90
2022/02/05 03:15:56;;;;;;;2.25;0.40;;;;;;;;;;4377883;32;20442;-91
2022/02/05 03:19:25;;;;;;;1.27;0.30;;;;;;;;;;4364259;32;20042;-90
2022/02/05 03:21:23;;;;;;;0.47;0.30;;;;;;;;;;4372969;32;20380;-91
2022/02/05 03:23:51;;;;;;;2.58;0.40;;;;;;;;;;4377940;32;20077;-91
2022/02/05 03:26:20;;;;;;;4.07;0.35;;;;;;;;;;4377857;32;20109;-91
2022/02/05 03:28:50;;;;;;;2.45;0.50;;;;;;;;;;4379038;32;20249;-91
2022/02/05 03:31:18;;;;;;;0.98;0.35;;;;;;;;;;4353698;32;20431;-91
2022/02/05 03:33:47;;;;;;;0.40;0.17;;;;;;;;;;4375706;32;20055;-90
2022/02/05 03:36:16;;;;;;;3.35;0.40;;;;;;;;;;4364034;32;20044;-90
2022/02/05 03:38:45;;;;;;;1.15;0.30;;;;;;;;;;4377416;32;20046;-89
2022/02/05 03:41:13;;;;;;;1.87;0.30;;;;;;;;;;4374982;32;20329;-90
2022/02/05 03:43:43;;;;;;;2.40;0.40;;;;;;;;;;4376208;32;20081;-90
2022/02/05 03:46:11;;;;;;;3.15;0.40;;;;;;;;;;4375616;32;20089;-90
2022/02/05 03:48:40;;;;;;;2.72;0.50;;;;;;;;;;4377670;32;20077;-90
2022/02/05 03:51:09;;;;;;;1.70;0.47;;;;;;;;;;4376933;32;20023;-90
2022/02/05 03:53:38;;;;;;;2.55;0.65;;;;;;;;;;4362087;32;20051;-90
2022/02/05 03:56:06;;;;;;;1.45;0.50;;;;;;;;;;4376256;32;20336;-90
2022/02/05 03:58:35;;;;;;;2.65;0.65;;;;;;;;;;4363176;32;20047;-91
2022/02/05 04:01:03;;;;;;;1.58;0.50;;;;;;;;;;4387071;32;20441;-90
2022/02/05 04:03:33;;;;;;;2.08;0.60;;;;;;;;;;4363123;32;20039;-90
2022/02/05 04:06:02;;;;;;;4.22;0.62;;;;;;;;;;4374902;32;20058;-90
2022/02/05 04:08:32;;;;;;;2.05;0.40;;;;;;;;;;4375229;32;20158;-90
2022/02/05 04:11:09;;;;;;;4.18;0.50;;;;;;;;;;4351161;32;20086;-90
2022/02/05 04:16:26;;;;;;;1.75;0.60;;;;;;;;;;4376247;32;20373;-91
2022/02/05 04:18:55;;;;;;;3.55;0.70;;;;;;;;;;4375782;32;20069;-90
2022/02/05 04:21:24;;;;;;;1.12;0.50;;;;;;;;;;4375215;32;20047;-90
2022/02/05 04:23:54;;;;;;;3.58;0.60;;;;;;;;;;4374845;32;20108;-90
2022/02/05 04:26:22;;;;;;;2.42;0.45;;;;;;;;;;4375725;32;20115;-90
2022/02/05 04:28:51;;;;;;;2.90;0.57;;;;;;;;;;4375293;32;20109;-90
2022/02/05 04:31:20;;;;;;;4.82;0.62;;;;;;;;;;4375346;32;20086;-91
2022/02/05 04:33:49;;;;;;;3.85;0.52;;;;;;;;;;4376378;32;20032;-91
2022/02/05 04:36:19;;;;;;;1.98;0.60;;;;;;;;;;4375561;32;20440;-90
2022/02/05 04:38:50;;;;;;;3.30;0.50;;;;;;;;;;4375243;32;20043;-91
2022/02/05 04:41:30;;;;;;;1.45;0.50;;;;;;;;;;4378491;32;20423;-90
2022/02/05 04:44:25;;;;;;;4.50;0.80;;;;;;;;;;4377233;32;20040;-91
2022/02/05 04:57:57;;;;;;;1.05;0.47;;;;;;;;;;4375623;32;20404;-90
2022/02/05 05:00:45;;;;;;;1.45;0.35;;;;;;;;;;4377266;32;20040;-89
2022/02/05 05:06:28;;;;;;;1.80;0.30;;;;;;;;;;4383527;32;20043;-90
2022/02/05 05:09:16;;;;;;;2.87;0.30;;;;;;;;;;4392445;32;20046;-90
2022/02/05 05:20:08;;;;;;;2.95;0.22;;;;;;;;;;4389888;32;20070;-91
2022/02/05 05:22:38;;;;;;;1.33;0.50;;;;;;;;;;4391222;32;20066;-90
2022/02/05 05:25:06;;;;;;;1.83;0.40;;;;;;;;;;4366736;32;20039;-91
2022/02/05 05:27:35;;;;;;;1.20;0.30;;;;;;;;;;4392890;32;20032;-90
2022/02/05 05:30:05;;;;;;;0.93;0.40;;;;;;;;;;4390784;32;20396;-90
2022/02/05 05:32:34;;;;;;;2.22;0.28;;;;;;;;;;4377957;32;20077;-91
2022/02/05 05:35:04;;;;;;;0.88;0.25;;;;;;;;;;4394743;32;20047;-90
2022/02/05 05:37:33;;;;;;;2.50;0.32;;;;;;;;;;4382319;32;20039;-90
2022/02/05 05:40:02;;;;;;;0.98;0.28;;;;;;;;;;4394139;32;20074;-90
2022/02/05 05:42:37;;;;;;;1.15;0.35;;;;;;;;;;4398640;32;20097;-90
2022/02/05 05:48:14;;;;;;;0.43;0.30;;;;;;;;;;4350683;32;20059;-90
2022/02/05 05:53:13;;;;;;;1.73;0.30;;;;;;;;;;4379357;32;20162;-90
2022/02/05 05:55:43;;;;;;;1.02;0.28;;;;;;;;;;4367640;32;20055;-91
2022/02/05 05:58:17;;;;;;;0.85;0.20;;;;;;;;;;4379908;32;20035;-90
2022/02/05 06:00:47;;;;;;;0.62;0.20;;;;;;;;;;4392950;32;20065;-90
2022/02/05 06:03:18;;;;;;;0.32;0.20;;;;;;;;;;4393602;32;20453;-90
2022/02/05 06:05:47;;;;;;;0.65;0.25;;;;;;;;;;4380282;32;20385;-90
2022/02/05 06:08:16;;;;;;;3.50;0.20;;;;;;;;;;4379956;32;20039;-90
2022/02/05 06:10:45;;;;;;;0.73;0.30;;;;;;;;;;4379962;32;20030;-91
2022/02/05 06:13:14;;;;;;;0.43;0.20;;;;;;;;;;4392980;32;20053;-90
2022/02/05 06:15:44;;;;;;;0.73;0.28;;;;;;;;;;4355056;32;20054;-91
2022/02/05 06:18:13;;;;;;;0.75;0.25;;;;;;;;;;4392760;32;20039;-90
2022/02/05 06:20:41;;;;;;;0.20;0.20;;;;;;;;;;4378905;32;20070;-91
2022/02/05 06:23:10;;;;;;;0.20;0.20;;;;;;;;;;4367127;32;20043;-91
2022/02/05 06:25:41;;;;;;;0.20;0.20;;;;;;;;;;4379095;32;20350;-90
2022/02/05 06:28:14;;;;;;;0.88;0.20;;;;;;;;;;4379200;32;20035;-90
2022/02/05 06:30:43;;;;;;;0.73;0.15;;;;;;;;;;4393348;32;20054;-91
2022/02/05 06:33:19;;;;;;;0.28;0.17;;;;;;;;;;4351279;27;20073;-88
2022/02/05 06:35:48;;;;;;;0.40;0.20;;;;;;;;;;4347503;33;20055;-90
2022/02/05 06:38:17;;;;;;;0.30;0.20;;;;;;;;;;4361539;32;20032;-90
2022/02/05 06:40:46;;;;;;;0.75;0.10;;;;;;;;;;4349633;33;20134;-91
2022/02/05 06:43:15;;;;;;;0.40;0.10;;;;;;;;;;4362836;32;20400;-90
2022/02/05 06:45:45;;;;;;;0.40;0.20;;;;;;;;;;4349042;33;20126;-90
2022/02/05 06:48:14;;;;;;;0.80;0.20;;;;;;;;;;4337088;33;20095;-90
2022/02/05 06:50:44;;;;;;;0.10;0.10;;;;;;;;;;4337479;33;20058;-90
2022/02/05 06:53:13;;;;;;;1.65;0.30;;;;;;;;;;4337826;33;20035;-90
2022/02/05 06:55:41;;;;;;;1.77;0.28;;;;;;;;;;4350126;33;20085;-90
2022/02/05 06:58:11;;;;;;;1.27;0.20;;;;;;;;;;4364516;32;20086;-90
2022/02/05 07:00:39;;;;;;;1.30;0.20;;;;;;;;;;4348199;33;20424;-90
2022/02/05 07:03:10;;;;;;;0.57;0.20;;;;;;;;;;4362155;32;20407;-90
2022/02/05 07:05:40;;;;;;;1.65;0.30;;;;;;;;;;4350682;32;20040;-90
2022/02/05 07:08:09;;;;;;;0.65;0.35;;;;;;;;;;4361393;32;20086;-90
2022/02/05 07:10:37;;;;;;;0.43;0.17;;;;;;;;;;4362344;32;20502;-89
2022/02/05 07:15:43;;;;;;;0.50;0.28;;;;;;;;;;4362081;32;20040;-91
2022/02/05 07:18:25;;;;;;;1.65;0.30;;;;;;;;;;4348797;33;20036;-89
2022/02/05 07:21:01;;;;;;;0.10;0.10;;;;;;;;;;4362153;32;20020;-90
2022/02/05 07:29:13;;;;;;;0.62;0.20;;;;;;;;;;4362196;33;20070;-89
2022/02/05 07:31:45;;;;;;;0.20;0.20;;;;;;;;;;4362031;33;20035;-90
2022/02/05 07:34:20;;;;;;;1.58;0.20;;;;;;;;;;4348709;33;20090;-89
2022/02/05 07:36:49;;;;;;;0.55;0.20;;;;;;;;;;4361957;32;20028;-89
2022/02/05 07:39:19;;;;;;;0.85;0.28;;;;;;;;;;4363473;32;20063;-89
2022/02/05 07:41:47;;;;;;;0.20;0.20;;;;;;;;;;4335270;33;20043;-89
2022/02/05 07:44:16;;;;;;;0.85;0.20;;;;;;;;;;4348039;33;20099;-89
2022/02/05 07:46:49;;;;;;;0.40;0.10;;;;;;;;;;4360746;32;20355;-90
2022/02/05 07:49:19;;;;;;;0.55;0.20;;;;;;;;;;4361434;32;20070;-91
2022/02/05 07:51:49;;;;;;;1.33;0.30;;;;;;;;;;4336546;33;20032;-91
2022/02/05 07:54:18;;;;;;;0.47;0.20;;;;;;;;;;4334196;33;20071;-91
2022/02/05 07:56:48;;;;;;;0.20;0.20;;;;;;;;;;4358195;33;20079;-91
2022/02/05 07:59:19;;;;;;;1.52;0.32;;;;;;;;;;4336615;33;20078;-91
2022/02/05 08:01:48;;;;;;;1.30;0.20;;;;;;;;;;4337094;33;20087;-91
2022/02/05 08:04:18;;;;;;;1.73;0.20;;;;;;;;;;4336718;33;20141;-90
2022/02/05 08:06:47;;;;;;;0.45;0.10;;;;;;;;;;4361694;32;20079;-90
2022/02/05 08:12:04;;;;;;;0.80;0.20;;;;;;;;;;4363296;32;20078;-89
2022/02/05 08:14:36;;;;;;;0.73;0.20;;;;;;;;;;4347621;33;20093;-90
2022/02/05 08:17:16;;;;;;;0.20;0.10;;;;;;;;;;4347997;33;20110;-91
2022/02/05 08:19:45;;;;;;;0.62;0.10;;;;;;;;;;4347892;33;20053;-90
2022/02/05 08:22:19;;;;;;;0.10;0.10;;;;;;;;;;4361203;32;20032;-90
2022/02/05 08:24:47;;;;;;;2.03;0.47;;;;;;;;;;4361340;32;20078;-90
2022/02/05 08:27:16;;;;;;;2.10;0.30;;;;;;;;;;4359952;33;20102;-90
2022/02/05 08:29:55;;;;;;;0.70;0.20;;;;;;;;;;4362218;32;20411;-89
2022/02/05 08:32:26;;;;;;;0.10;0.10;;;;;;;;;;4362833;32;20107;-90
2022/02/05 08:34:57;;;;;;;0.30;0.10;;;;;;;;;;4358845;33;20420;-90
2022/02/05 08:37:26;;;;;;;0.20;0.13;;;;;;;;;;4362796;32;20087;-89
2022/02/05 08:39:55;;;;;;;0.47;0.30;;;;;;;;;;4362806;32;20043;-91
2022/02/05 08:42:24;;;;;;;0.75;0.20;;;;;;;;;;4360664;33;20043;-91
2022/02/05 08:44:52;;;;;;;1.10;0.10;;;;;;;;;;4360873;33;20024;-91
2022/02/05 08:47:22;;;;;;;2.37;0.45;;;;;;;;;;4360593;33;20028;-90
2022/02/05 08:49:52;;;;;;;0.45;0.32;;;;;;;;;;4352210;33;20044;-90
2022/02/05 08:52:25;;;;;;;1.58;0.37;;;;;;;;;;4336354;33;20071;-89
2022/02/05 08:54:54;;;;;;;0.88;0.30;;;;;;;;;;4337029;33;20051;-90
2022/02/05 08:57:22;;;;;;;1.62;0.40;;;;;;;;;;4362188;33;20040;-89
2022/02/05 09:00:04;;;;;;;0.98;0.20;;;;;;;;;;4349802;33;20039;-90
2022/02/05 09:03:00;;;;;;;1.00;0.20;;;;;;;;;;4335955;33;20122;-89
2022/02/05 09:05:39;;;;;;;1.17;0.20;;;;;;;;;;4358240;33;20404;-88
2022/02/05 09:08:21;;;;;;;2.30;0.20;;;;;;;;;;4360884;33;20090;-88
2022/02/05 09:11:06;;;;;;;1.35;0.20;;;;;;;;;;4360890;33;20048;-88
2022/02/05 09:16:13;;;;;;;0.20;0.20;;;;;;;;;;4346973;33;19981;-89
2022/02/05 09:18:43;;;;;;;1.48;0.40;;;;;;;;;;4361398;32;20039;-88
2022/02/05 09:21:11;;;;;;;0.40;0.30;;;;;;;;;;4365769;32;20043;-88
2022/02/05 09:23:42;;;;;;;0.52;0.15;;;;;;;;;;4364686;32;20040;-89
2022/02/05 09:26:12;;;;;;;1.70;0.43;;;;;;;;;;4365884;32;20066;-90
2022/02/05 09:28:42;;;;;;;1.15;0.30;;;;;;;;;;4363568;32;20089;-90
2022/02/05 09:33:40;;;;;;;0.62;0.32;;;;;;;;;;4365241;32;20351;-90
2022/02/05 09:36:10;;;;;;;0.45;0.20;;;;;;;;;;4363784;33;20070;-93
2022/02/05 09:38:39;;;;;;;4.85;0.55;;;;;;;;;;4350052;33;20462;-92
2022/02/05 09:41:08;;;;;;;1.80;0.40;;;;;;;;;;4331614;33;20044;-92
2022/02/05 09:43:37;;;;;;;3.55;0.28;;;;;;;;;;4337433;33;20106;-92
2022/02/05 09:46:06;;;;;;;1.80;0.37;;;;;;;;;;4349650;33;20059;-92
2022/02/05 09:48:38;;;;;;;1.15;0.30;;;;;;;;;;4349885;33;20032;-92
2022/02/05 09:51:15;;;;;;;4.35;0.62;;;;;;;;;;4337123;33;20454;-92
2022/02/05 09:53:48;;;;;;;1.85;0.60;;;;;;;;;;4362079;32;20058;-91
2022/02/05 09:56:18;;;;;;;0.95;0.30;;;;;;;;;;4361193;33;20082;-91
2022/02/05 09:58:47;;;;;;;2.83;0.60;;;;;;;;;;4362706;32;20146;-90
2022/02/05 10:01:22;;;;;;;1.45;0.43;;;;;;;;;;4325199;33;20445;-90
2022/02/05 10:03:53;;;;;;;3.08;0.80;;;;;;;;;;4364430;32;20356;-90
2022/02/05 10:06:27;;;;;;;1.45;0.52;;;;;;;;;;4361337;32;20055;-91
2022/02/05 10:08:56;;;;;;;;;;;;;;;;;;4337316;33;20119;-91
2022/02/05 10:11:25;;;;;;;2.62;0.70;;;;;;;;;;4349667;33;19939;-91
2022/02/05 10:13:53;;;;;;;1.58;0.70;;;;;;;;;;4349948;33;20086;-90
2022/02/05 10:16:33;;;;;;;5.40;0.50;;;;;;;;;;4362673;32;20036;-91
2022/02/05 10:19:02;;;;;;;2.47;0.60;;;;;;;;;;4349614;33;20053;-91
2022/02/05 10:21:32;;;;;;;1.45;0.50;;;;;;;;;;4337562;33;20348;-90
2022/02/05 10:24:01;;;;;;;3.30;0.68;;;;;;;;;;4362357;32;20054;-90
2022/02/05 10:26:40;;;;;;;2.10;0.70;;;;;;;;;;4363956;32;20379;-92
2022/02/05 10:29:15;;;;;;;3.90;0.73;;;;;;;;;;4349050;33;20056;-89
2022/02/05 10:32:01;;;;;;;2.03;0.77;;;;;;;;;;4362688;32;20024;-89
2022/02/05 10:34:35;;;;;;;2.72;0.60;;;;;;;;;;4364063;32;20036;-89
2022/02/05 10:37:13;;;;;;;2.22;0.65;;;;;;;;;;4363766;32;20099;-89
2022/02/05 10:40:03;;;;;;;6.15;0.90;;;;;;;;;;4368079;33;20087;-92
2022/02/05 10:45:20;;;;;;;4.93;1.12;;;;;;;;;;4349618;33;20048;-91
2022/02/05 10:47:52;;;;;;;7.95;1.23;;;;;;;;;;4350945;33;20054;-90
2022/02/05 10:50:26;;;;;;;7.22;1.60;;;;;;;;;;4339816;33;20085;-91
2022/02/05 10:53:11;;;;;;;5.25;1.45;;;;;;;;;;4362832;32;20024;-90
2022/02/05 10:56:01;;;;;;;7.82;1.70;;;;;;;;;;4361645;33;20475;-90
2022/02/05 11:07:15;;;;;;;5.78;1.65;;;;;;;;;;4362194;32;20103;-91
2022/02/05 11:09:46;;;;;;;;;;;;;;;;;;4349480;33;20078;-90
2022/02/05 11:20:05;;;;;;;6.40;1.30;;;;;;;;;;4336601;33;20044;-91
2022/02/05 11:22:35;;;;;;;6.95;1.60;;;;;;;;;;4361994;32;20035;-91
2022/02/05 11:25:04;;;;;;;10.57;1.70;;;;;;;;;;4349681;33;20039;-90
2022/02/05 11:27:33;;;;;;;8.73;2.05;;;;;;;;;;4336355;33;20066;-91
2022/02/05 11:30:21;;;;;;;9.93;2.10;;;;;;;;;;4362293;32;20061;-91
2022/02/05 11:32:51;;;;;;;13.07;1.87;;;;;;;;;;4337279;33;20040;-91
2022/02/05 11:35:33;;;;;;;5.55;1.42;;;;;;;;;;4343666;33;20043;-91
2022/02/05 11:38:03;;;;;;;8.27;1.83;;;;;;;;;;4367318;32;20036;-91
2022/02/05 11:40:42;;;;;;;8.20;1.70;;;;;;;;;;4378147;32;20067;-91
2022/02/05 11:43:20;;;;;;;8.15;1.83;;;;;;;;;;4364551;33;20076;-91
2022/02/05 11:46:05;;;;;;;8.80;1.75;;;;;;;;;;4368735;32;20074;-91
2022/02/05 11:48:37;;;;;;;10.05;1.75;;;;;;;;;;4336255;33;20073;-91
2022/02/05 11:51:12;;;;;;;6.72;1.42;;;;;;;;;;4362220;33;20107;-91
2022/02/05 11:53:57;;;;;;;5.37;1.08;;;;;;;;;;4347990;33;20039;-90
2022/02/05 11:59:18;;;;;;;5.55;1.35;;;;;;;;;;4362349;32;20024;-91
2022/02/05 12:01:49;;;;;;;8.32;1.45;;;;;;;;;;4361708;32;20059;-91
2022/02/05 12:04:21;;;;;;;7.93;1.27;;;;;;;;;;4325894;32;20074;-91
2022/02/05 12:06:55;;;;;;;9.85;1.50;;;;;;;;;;4348536;33;20054;-91
2022/02/05 12:09:46;;;;;;;6.35;1.52;;;;;;;;;;4350308;33;20061;-91
2022/02/05 12:12:45;;;;;;;5.18;1.30;;;;;;;;;;4348487;33;20044;-91
2022/02/05 12:15:15;;;;;;;7.80;1.25;;;;;;;;;;4361722;33;20046;-91
2022/02/05 12:18:03;;;;;;;10.85;1.50;;;;;;;;;;4347922;33;20032;-90
2022/02/05 12:25:58;;;;;;;6.90;1.10;;;;;;;;;;4361875;32;20027;-91
2022/02/05 12:28:29;;;;;;;9.40;1.27;;;;;;;;;;4348269;33;20031;-91
2022/02/05 12:31:00;;;;;;;8.27;1.42;;;;;;;;;;4360949;32;20400;-91
2022/02/05 12:33:45;;;;;;;12.02;1.52;;;;;;;;;;4347353;33;20451;-91
2022/02/05 12:36:29;;;;;;;8.82;1.08;;;;;;;;;;4349207;33;20035;-91
2022/02/05 12:38:59;;;;;;;10.15;1.45;;;;;;;;;;4361380;33;20406;-91
2022/02/05 12:41:30;;;;;;;9.93;1.30;;;;;;;;;;4349506;32;20044;-90
2022/02/05 12:44:00;;;;;;;7.62;1.30;;;;;;;;;;4359920;33;20087;-91
2022/02/05 12:46:31;;;;;;;13.30;1.77;;;;;;;;;;4363033;33;20363;-91
2022/02/05 12:49:05;;;;;;;11.73;1.40;;;;;;;;;;4347286;33;20131;-91
2022/02/05 12:51:40;;;;;;;7.53;1.42;;;;;;;;;;4335634;33;20051;-91
2022/02/05 12:54:16;;;;;;;10.35;1.70;;;;;;;;;;4336322;33;20087;-91
2022/02/05 12:56:46;;;;;;;11.23;1.08;;;;;;;;;;4365929;32;20063;-91
2022/02/05 12:59:23;;;;;;;7.65;1.50;;;;;;;;;;4350862;33;20036;-91
2022/02/05 13:02:00;;;;;;;8.90;1.80;;;;;;;;;;4365390;32;20050;-91
2022/02/05 13:04:32;;;;;;;14.90;1.67;;;;;;;;;;4335731;33;20422;-91
2022/02/05 13:07:13;;;;;;;6.87;1.13;;;;;;;;;;4350461;33;20062;-91
2022/02/05 13:09:48;;;;;;;4.78;0.98;;;;;;;;;;4366208;32;20170;-91
2022/02/05 13:12:22;;;;;;;10.20;1.35;;;;;;;;;;4350774;33;20063;-91
2022/02/05 13:15:00;;;;;;;9.80;1.60;;;;;;;;;;4338706;33;20078;-91
2022/02/05 13:18:18;;;;;;;10.88;1.45;;;;;;;;;;4364676;32;20087;-91
2022/02/05 13:33:52;;;;;;;10.98;1.50;;;;;;;;;;4351958;32;20040;-91
2022/02/05 13:36:40;;;;;;;10.40;1.60;;;;;;;;;;4350611;33;20079;-90
2022/02/05 13:39:38;;;;;;;11.30;1.30;;;;;;;;;;4334260;32;20047;-91
2022/02/05 13:42:15;;;;;;;8.95;1.45;;;;;;;;;;4357451;33;20020;-90
2022/02/05 13:44:55;;;;;;;11.35;1.40;;;;;;;;;;4365828;32;20082;-91
2022/02/05 13:47:26;;;;;;;8.93;1.37;;;;;;;;;;4339423;33;20035;-91
2022/02/05 13:50:04;;;;;;;13.00;1.77;;;;;;;;;;4362191;33;20044;-91
2022/02/05 13:52:33;;;;;;;10.25;1.52;;;;;;;;;;4363651;32;20141;-90
2022/02/05 13:55:14;;;;;;;13.88;1.70;;;;;;;;;;4363385;33;20055;-90
2022/02/05 13:57:57;;;;;;;13.77;1.73;;;;;;;;;;4350233;33;20054;-90
2022/02/05 14:00:41;;;;;;;9.73;1.40;;;;;;;;;;4365194;32;20031;-90
2022/02/05 14:03:12;;;;;;;8.77;1.33;;;;;;;;;;4363213;32;20140;-91
2022/02/05 14:05:45;;;;;;;13.50;1.40;;;;;;;;;;4351012;32;20047;-90
2022/02/05 14:08:25;;;;;;;9.45;1.45;;;;;;;;;;4362852;33;20046;-91
2022/02/05 14:10:55;;;;;;;8.98;1.17;;;;;;;;;;4337607;33;20035;-90
2022/02/05 14:13:26;;;;;;;9.00;1.50;;;;;;;;;;4364418;32;20036;-90
2022/02/05 14:15:56;;;;;;;6.82;1.23;;;;;;;;;;4362434;32;20054;-90
2022/02/05 14:18:26;;;;;;;8.93;1.50;;;;;;;;;;4364875;32;20040;-91
2022/02/05 14:20:54;;;;;;;13.38;1.65;;;;;;;;;;4362562;32;20379;-91
2022/02/05 14:23:25;;;;;;;10.65;1.55;;;;;;;;;;4349318;33;20050;-90
2022/02/05 14:26:02;;;;;;;10.55;1.35;;;;;;;;;;4351437;32;20114;-90
2022/02/05 14:28:43;;;;;;;14.52;1.30;;;;;;;;;;4361490;33;20036;-91
2022/02/05 14:31:31;;;;;;;12.20;1.67;;;;;;;;;;4364710;32;20061;-90
2022/02/05 14:42:10;;;;;;;10.35;1.50;;;;;;;;;;4361610;33;20084;-91
2022/02/05 14:44:42;;;;;;;10.75;1.35;;;;;;;;;;4362387;32;20091;-90
2022/02/05 14:47:12;;;;;;;10.90;1.40;;;;;;;;;;4364786;33;20336;-90
2022/02/05 14:49:41;;;;;;;7.37;1.42;;;;;;;;;;4368777;32;20046;-89
2022/02/05 14:52:14;;;;;;;9.15;1.55;;;;;;;;;;4367889;32;20072;-90
2022/02/05 14:54:43;;;;;;;9.05;1.67;;;;;;;;;;4364208;32;20062;-90
2022/02/05 14:57:13;;;;;;;8.18;1.42;;;;;;;;;;4338200;33;20078;-90
2022/02/05 14:59:43;;;;;;;10.45;1.40;;;;;;;;;;4362918;33;20024;-89
2022/02/05 15:02:12;;;;;;;9.25;1.70;;;;;;;;;;4357783;33;20036;-89
2022/02/05 15:04:41;;;;;;;7.72;1.12;;;;;;;;;;4362744;33;20428;-90
2022/02/05 15:07:17;;;;;;;8.07;1.27;;;;;;;;;;4362730;32;20028;-91
2022/02/05 15:09:45;;;;;;;9.43;1.33;;;;;;;;;;4336807;33;20031;-90
2022/02/05 15:12:15;;;;;;;7.78;1.42;;;;;;;;;;4365348;32;20024;-91
2022/02/05 15:14:44;;;;;;;11.57;1.62;;;;;;;;;;4337516;33;20066;-90
2022/02/05 15:17:16;;;;;;;5.35;1.20;;;;;;;;;;4364133;32;20151;-91
2022/02/05 15:19:44;;;;;;;11.70;1.40;;;;;;;;;;4363301;32;20032;-90
2022/02/05 15:22:13;;;;;;;11.05;1.55;;;;;;;;;;4348371;33;20051;-90
2022/02/05 15:24:43;;;;;;;9.55;1.73;;;;;;;;;;4350073;32;20052;-90
2022/02/05 15:27:13;;;;;;;9.73;1.23;;;;;;;;;;4348378;33;20119;-91
2022/02/05 15:29:42;;;;;;;10.75;1.30;;;;;;;;;;4349138;33;20059;-90
2022/02/05 15:32:11;;;;;;;12.73;1.30;;;;;;;;;;4362679;32;20043;-91
2022/02/05 15:34:44;;;;;;;7.00;1.10;;;;;;;;;;4347242;33;20072;-91
2022/02/05 15:37:20;;;;;;;8.05;1.02;;;;;;;;;;4360962;32;20058;-93
2022/02/05 15:40:02;;;;;;;7.82;1.10;;;;;;;;;;4349622;32;20052;-89
2022/02/05 15:45:20;;;;;;;6.82;1.35;;;;;;;;;;4347901;33;20083;-89
2022/02/05 15:47:50;;;;;;;7.03;1.08;;;;;;;;;;4347498;33;20087;-89
2022/02/05 15:50:19;;;;;;;8.82;1.50;;;;;;;;;;4347517;33;20048;-89
2022/02/05 15:52:48;;;;;;;12.27;1.37;;;;;;;;;;4347891;33;20055;-90
2022/02/05 15:55:25;;;;;;;9.85;1.30;;;;;;;;;;4347235;33;20058;-90
2022/02/05 15:58:07;;;;;;;10.35;1.48;;;;;;;;;;4364865;32;20036;-89
2022/02/05 16:00:38;;;;;;;5.75;1.10;;;;;;;;;;4354263;33;20070;-89
2022/02/05 16:03:08;;;;;;;9.63;1.60;;;;;;;;;;4364738;33;20078;-90
2022/02/05 16:05:36;;;;;;;7.95;1.33;;;;;;;;;;4361667;32;20047;-90
2022/02/05 16:08:05;;;;;;;6.45;1.10;;;;;;;;;;4332527;33;20044;-90
2022/02/05 16:10:34;;;;;;;13.02;1.50;;;;;;;;;;4347327;33;20035;-90
2022/02/05 16:13:03;;;;;;;6.68;1.20;;;;;;;;;;4361059;32;20050;-91
2022/02/05 16:15:31;;;;;;;9.57;1.40;;;;;;;;;;4347513;33;20063;-91
2022/02/05 16:18:05;;;;;;;10.48;1.45;;;;;;;;;;4359956;33;20036;-91
2022/02/05 16:20:34;;;;;;;5.40;1.20;;;;;;;;;;4347447;33;20035;-92
2022/02/05 16:23:05;;;;;;;10.82;1.27;;;;;;;;;;4360374;33;20063;-92
2022/02/05 16:25:34;;;;;;;7.90;1.33;;;;;;;;;;4346782;33;20047;-91
2022/02/05 16:28:03;;;;;;;6.97;1.25;;;;;;;;;;4347113;33;20093;-91
2022/02/05 16:30:37;;;;;;;6.45;1.33;;;;;;;;;;4361336;32;20102;-91
2022/02/05 16:33:12;;;;;;;5.03;1.40;;;;;;;;;;4360317;32;20043;-92
2022/02/05 16:35:48;;;;;;;9.07;1.10;;;;;;;;;;4334253;33;20032;-91
2022/02/05 16:38:21;;;;;;;5.87;1.00;;;;;;;;;;4346349;33;20065;-90
2022/02/05 16:40:51;;;;;;;6.53;1.33;;;;;;;;;;4346861;33;20367;-91
2022/02/05 16:43:21;;;;;;;10.27;1.67;;;;;;;;;;4346577;33;20082;-91
2022/02/05 16:45:50;;;;;;;5.47;1.20;;;;;;;;;;4359615;33;20078;-91
2022/02/05 16:48:20;;;;;;;13.68;1.42;;;;;;;;;;4361277;33;20039;-91
2022/02/05 16:50:49;;;;;;;5.22;1.40;;;;;;;;;;4347686;33;20352;-91
2022/02/05 16:53:18;;;;;;;11.48;1.35;;;;;;;;;;4346804;33;20502;-92
2022/02/05 16:55:47;;;;;;;7.07;1.08;;;;;;;;;;4347338;33;20104;-92
2022/02/05 16:58:16;;;;;;;7.43;1.08;;;;;;;;;;4358966;33;20336;-92
2022/02/05 17:00:44;;;;;;;7.68;1.10;;;;;;;;;;4349570;33;20040;-92
2022/02/05 17:03:14;;;;;;;6.05;1.02;;;;;;;;;;4359234;33;20028;-91
2022/02/05 17:05:44;;;;;;;7.68;1.45;;;;;;;;;;4360728;33;20438;-91
2022/02/05 17:08:14;;;;;;;8.88;1.25;;;;;;;;;;4361524;33;20027;-92
2022/02/05 17:10:44;;;;;;;7.45;1.33;;;;;;;;;;4348429;33;20032;-93
2022/02/05 17:13:13;;;;;;;6.05;1.00;;;;;;;;;;4360249;33;20040;-93
2022/02/05 17:15:42;;;;;;;7.07;1.02;;;;;;;;;;4347364;33;20090;-92
2022/02/05 17:18:22;;;;;;;6.85;1.05;;;;;;;;;;4347219;33;20433;-92
2022/02/05 17:20:54;;;;;;;6.43;1.30;;;;;;;;;;4361422;33;20067;-92
2022/02/05 17:23:33;;;;;;;5.80;1.02;;;;;;;;;;4323658;33;20066;-92
2022/02/05 17:26:07;;;;;;;8.20;1.42;;;;;;;;;;4360410;33;20020;-92
2022/02/05 17:28:36;;;;;;;6.12;0.93;;;;;;;;;;4360692;33;20078;-93
2022/02/05 17:31:05;;;;;;;8.98;1.12;;;;;;;;;;4347342;33;20044;-93
2022/02/05 17:33:34;;;;;;;6.12;1.23;;;;;;;;;;4349184;33;20107;-93
2022/02/05 17:36:06;;;;;;;8.65;1.27;;;;;;;;;;4374387;33;20379;-92
2022/02/05 17:38:35;;;;;;;8.60;1.17;;;;;;;;;;4374547;33;20046;-92
2022/02/05 17:41:04;;;;;;;9.98;1.35;;;;;;;;;;4365387;32;20086;-92
2022/02/05 17:43:34;;;;;;;8.38;1.27;;;;;;;;;;4336478;33;20039;-92
2022/02/05 17:46:03;;;;;;;9.38;1.10;;;;;;;;;;4348922;33;20040;-92
2022/02/05 17:48:33;;;;;;;7.15;0.85;;;;;;;;;;4335311;33;20028;-92
2022/02/05 17:51:03;;;;;;;9.80;1.40;;;;;;;;;;4335894;33;20056;-91
2022/02/05 17:53:37;;;;;;;10.85;1.35;;;;;;;;;;4335381;33;20040;-91
2022/02/05 17:56:07;;;;;;;10.80;1.60;;;;;;;;;;4347965;33;20028;-91
2022/02/05 17:58:41;;;;;;;5.32;1.35;;;;;;;;;;4347955;33;20043;-91
2022/02/05 18:01:12;;;;;;;11.75;1.10;;;;;;;;;;4347224;33;20040;-91
2022/02/05 18:03:42;;;;;;;9.65;1.20;;;;;;;;;;4347016;33;20032;-91